Pagrindinis puslapis
METAR-TAF:

METAR-TAF

Oro uostai :

Buraida, Saudo Arabija

platuma: 26-18N, ilguma: 043-46E, Aukštis: 648 m

Dabartinis oras

Ataskaita buvo paskelbta 47 minutes, ne 10:00 UTC
Vėjas 12 kt iš Pietų/Pietryčių
Temperatūra 36°C
Drėgmė 27%
Slėgis 1017 hPa
Matomumas 10 km arba daugiau
Su prošvaistėmis ne aukštis 3000 ft

METAR: OEGS 141000Z 15012KT 9999 BKN030 36/14 Q1017

Laikas: 13:47 (10:47 UTC)

Prognozė

Ataskaita buvo paskelbta 11 valandos ir 47 minutes, ne 23:00 UTC
Prognozė galioja nuo 14 metu 00 UTC su 15 metu 06 UTC
Vėjas 3 kt nuo kintamojo kryptimis
Matomumas 10 km arba daugiau
Mažai debesys ne aukštis 4000 ft
Išsisklaidę debesys ne aukštis 10000 ft
Tapsmas
nuo 14 metu 06 UTC su 14 metu 08 UTC
Vėjas 10 kt iš Vakarų/Pietvakarių

TAF: OEGS 132300Z 1400/1506 VRB03KT 9999 FEW040 SCT100 BECMG 1406/1408 24010KT

Orai ataskaitas ir orų prognozės (METAR, TAF).

turimą stotys yra geltonos ir raudonos taškus žemėlapyje.

Perkelti pele per norėdami pamatyti stoties vardą.

Tada spustelėkite, norėdami matyti oro stebėjimo ir prognozės.

Norėdami pakeisti žemėlapį: spustelėkite ant žalios mygtukų su juodo kryžiaus žemyn,; žalią mygtuką su brūkšneliu, jei norite nutolinti; arba žalių rodyklių gretimoms žemėlapius.


METAR-TAF: